EKRN

Bornholm Airport

Airport
ICAO code
EKRN
IATA Code
RNN
Summary
ICAO Region
EUR
ICAO Territory
Location

Rønne, Bornholm, Hovedstaden

Serving
Bornholm
Elevation
52 ft
Coordinates
55° 3' 47" N , 14° 45' 37" E
Metar
Observation
EKRN 110850Z AUTO 18005KT 9999 NCD 21/16 Q1027
Station
Roenne
Date/Time
2022-08-11 08:50:00
Wind direction
180°
Wind speed
05 kts
Lowest cloud amount
no clouds detected
Temperature
21°C
Dew point
16°C
Humidity
73%
QNH
1027 hPa
Weather condition
n/a

Description

Bornholm Airport is a Danish airport located 5 km southeast of Rønne, on the island of Bornholm.

Runways

Designator Length Width Surface Rops
11/29 2002 45 ASP No/No

Airport map

Aerial View

SKYbrary Partners:

Safety knowledge contributed by: